Time;durP1;ratioP1;P1;durP2;ratioP2;P2;SDS_P1;SDS_P2;PMS_P1;PMS_P2;Temp;Humidity;BMP_temperature;BMP_pressure;BME280_temperature;BME280_humidity;BME280_pressure;Samples;Min_cycle;Max_cycle;Signal;HPM_P1;HPM_P2
2022/08/19 04:08:50;;;;;;;28.47;25.03;;;18.80;89.30;;;;;;4947735;28;20181;-89
2022/08/19 04:59:43;;;;;;;;;;;;;;;;;;;;;
2022/08/19 06:28:08;;;;;;;20.73;12.87;;;19.40;77.80;;;;;;5089238;28;20214;-86
2022/08/19 06:30:54;;;;;;;17.73;11.90;;;19.50;70.20;;;;;;5081697;28;20208;-88
2022/08/19 06:33:48;;;;;;;20.23;12.27;;;19.50;74.30;;;;;;5047905;28;20213;-89
2022/08/19 08:18:41;;;;;;;;;;;;;;;;;;;;;
2022/08/19 08:55:53;;;;;;;11.43;6.50;;;21.80;54.20;;;;;;4795081;30;20224;-88
2022/08/19 08:58:58;;;;;;;9.20;6.00;;;21.80;57.10;;;;;;4792588;29;20220;-88
2022/08/19 09:01:38;;;;;;;9.50;6.73;;;21.70;60.00;;;;;;4840627;29;20224;-88
2022/08/19 09:14:59;;;;;;;8.83;6.63;;;21.60;67.10;;;;;;4926390;29;20182;-89
2022/08/19 09:17:45;;;;;;;9.23;6.47;;;21.70;64.80;;;;;;4923181;29;20217;-91
2022/08/19 09:24:29;;;;;;;8.37;5.57;;;21.80;55.30;;;;;;4987785;28;20199;-90
2022/08/19 09:34:19;;;;;;;10.03;5.97;;;22.10;51.80;;;;;;5039684;28;20178;-87
2022/08/19 09:44:45;;;;;;;9.20;5.27;;;22.30;46.90;;;;;;4979147;28;20193;-91
2022/08/19 09:58:02;;;;;;;6.83;5.20;;;22.00;57.60;;;;;;4922553;28;20174;-92
2022/08/19 10:01:12;;;;;;;8.20;5.67;;;22.00;61.00;;;;;;5008885;28;20191;-90
2022/08/19 10:04:22;;;;;;;7.60;5.33;;;22.20;54.50;;;;;;5058178;28;20181;-89
2022/08/19 10:18:04;;;;;;;7.47;5.27;;;22.50;45.10;;;;;;5059265;28;20155;-88
2022/08/19 10:20:41;;;;;;;8.40;6.30;;;22.40;49.00;;;;;;4955132;28;20195;-90
2022/08/19 11:02:33;;;;;;;8.87;7.23;;;22.40;57.20;;;;;;4926464;28;20221;-92
2022/08/19 11:25:56;;;;;;;10.63;9.20;;;23.10;38.10;;;;;;4887996;29;20202;-93
2022/08/19 11:32:29;;;;;;;;;;;;;;;;;;;;;
2022/08/19 11:53:59;;;;;;;12.40;8.27;;;23.20;28.70;;;;;;5079117;28;20203;-95
2022/08/19 12:04:05;;;;;;;12.77;10.40;;;23.90;20.00;;;;;;4999426;28;20178;-89
2022/08/19 12:07:17;;;;;;;12.20;10.83;;;24.30;1.50;;;;;;4966903;28;20174;-92
2022/08/19 12:13:37;;;;;;;8.43;6.60;;;24.70;1.00;;;;;;4992331;28;20241;-90
2022/08/19 12:41:01;;;;;;;;;;;;;;;;;;;;;
2022/08/19 12:50:55;;;;;;;;;;;;;;;;;;;;;
2022/08/19 12:53:41;;;;;;;7.57;4.40;;;25.50;1.00;;;;;;4965969;28;20184;-90
2022/08/19 12:56:47;;;;;;;7.43;6.60;;;25.80;1.00;;;;;;4963599;29;20169;-90
2022/08/19 13:15:51;;;;;;;5.73;3.10;;;25.40;1.00;;;;;;4963422;28;20751;-91
2022/08/19 13:18:20;;;;;;;4.23;3.30;;;25.10;1.00;;;;;;4962884;28;20176;-92
2022/08/19 13:20:58;;;;;;;4.17;3.20;;;24.90;1.00;;;;;;4977883;28;20187;-91
2022/08/19 13:27:06;;;;;;;5.67;3.30;;;24.90;1.00;;;;;;5029388;28;20187;-89
2022/08/19 13:36:26;;;;;;;5.97;3.20;;;25.50;1.00;;;;;;5072305;28;20184;-90
2022/08/19 13:39:13;;;;;;;6.83;2.53;;;25.50;1.00;;;;;;5060393;28;20236;-90
2022/08/19 13:41:47;;;;;;;4.03;3.30;;;25.60;1.00;;;;;;5060383;28;20200;-89
2022/08/19 13:45:11;;;;;;;5.03;2.70;;;25.70;1.00;;;;;;5059650;28;20176;-89
2022/08/19 13:48:33;;;;;;;;;;;;;;;;;;;;;
2022/08/19 13:54:59;;;;;;;5.20;2.57;;;25.40;1.00;;;;;;5055637;28;20231;-90
2022/08/19 13:57:59;;;;;;;3.83;3.20;;;25.40;1.00;;;;;;5018341;28;20174;-94
2022/08/19 14:00:44;;;;;;;6.00;2.80;;;24.80;1.00;;;;;;5017072;28;20182;-92
2022/08/19 14:03:51;;;;;;;3.10;2.50;;;24.60;1.00;;;;;;5060084;28;20169;-93
2022/08/19 14:07:13;;;;;;;;;;;;;;;;;;;;;
2022/08/19 14:13:35;;;;;;;4.33;3.03;;;23.40;38.70;;;;;;5076482;28;20223;-90
2022/08/19 14:16:43;;;;;;;4.00;3.00;;;23.00;64.20;;;;;;5060199;28;20205;-90
2022/08/19 14:19:57;;;;;;;4.67;3.00;;;22.80;69.70;;;;;;5082174;28;20174;-92
2022/08/19 14:23:13;;;;;;;4.60;2.70;;;22.90;76.50;;;;;;5067211;28;20199;-90
2022/08/19 14:33:37;;;;;;;3.23;2.50;;;23.10;59.40;;;;;;5009282;28;20220;-91
2022/08/19 14:43:32;;;;;;;4.60;2.87;;;22.50;88.00;;;;;;4926635;29;20289;-91
2022/08/19 15:07:04;;;;;;;2.40;1.87;;;24.50;43.90;;;;;;4944613;29;20244;-91
2022/08/19 15:10:04;;;;;;;2.03;1.50;;;24.80;40.60;;;;;;4994270;28;20212;-92
2022/08/19 15:43:38;;;;;;;3.43;2.10;;;24.50;19.10;;;;;;5040185;28;20200;-90
2022/08/19 16:15:56;;;;;;;5.93;2.70;;;23.70;60.30;;;;;;5080159;28;20211;-90
2022/08/19 16:18:42;;;;;;;3.60;2.83;;;23.80;52.00;;;;;;5079081;28;20195;-90
2022/08/19 16:28:45;;;;;;;5.40;3.00;;;23.70;59.10;;;;;;5038792;28;20196;-89
2022/08/19 16:31:13;;;;;;;4.97;3.33;;;23.70;57.90;;;;;;5021927;28;20201;-91
2022/08/19 16:40:53;;;;;;;4.23;3.43;;;23.70;67.80;;;;;;5030792;28;20232;-91
2022/08/19 16:43:37;;;;;;;4.50;3.27;;;23.90;68.70;;;;;;5029974;28;20445;-91
2022/08/19 16:50:06;;;;;;;4.63;2.90;;;24.10;76.50;;;;;;5022813;28;20218;-91
2022/08/19 16:52:58;;;;;;;3.33;2.40;;;24.20;69.30;;;;;;5009749;28;20280;-91
2022/08/19 16:59:01;;;;;;;4.00;2.40;;;24.40;44.00;;;;;;5050390;28;20245;-91
2022/08/19 17:05:31;;;;;;;3.33;2.30;;;24.40;41.30;;;;;;5069265;28;20705;-91
2022/08/19 17:15:27;;;;;;;4.80;2.70;;;24.60;42.70;;;;;;4967518;29;20196;-92
2022/08/19 17:21:14;;;;;;;4.73;3.13;;;24.70;32.60;;;;;;5075826;28;20216;-93
2022/08/19 17:24:07;;;;;;;6.57;2.90;;;24.60;21.80;;;;;;5073807;28;20205;-94
2022/08/19 17:30:04;;;;;;;3.83;2.40;;;24.60;21.50;;;;;;5060955;28;20169;-91
2022/08/19 17:36:10;;;;;;;5.43;3.00;;;24.40;34.60;;;;;;5077486;28;20200;-92
2022/08/19 17:38:40;;;;;;;4.70;3.43;;;24.00;57.30;;;;;;5077592;28;20179;-92
2022/08/19 17:44:48;;;;;;;4.97;3.10;;;23.70;75.60;;;;;;5029762;28;20189;-91
2022/08/19 17:47:20;;;;;;;6.60;4.20;;;23.60;86.00;;;;;;5039627;28;20700;-92
2022/08/19 17:49:49;;;;;;;9.27;5.40;;;23.50;91.40;;;;;;5038380;28;20208;-92
2022/08/19 17:52:29;;;;;;;6.67;4.43;;;23.50;93.30;;;;;;5042647;28;20224;-91
2022/08/19 17:55:28;;;;;;;7.30;4.60;;;23.70;93.30;;;;;;5059004;28;20658;-91
2022/08/19 18:01:42;;;;;;;4.73;3.60;;;23.70;93.60;;;;;;5060863;28;20167;-91
2022/08/19 18:07:45;;;;;;;6.00;3.57;;;23.70;83.90;;;;;;4999814;28;20741;-92
2022/08/19 18:10:23;;;;;;;4.63;3.53;;;23.60;85.20;;;;;;4998013;28;20213;-90
2022/08/19 18:12:54;;;;;;;7.50;3.33;;;23.40;87.60;;;;;;5036545;28;20216;-87
2022/08/19 18:15:32;;;;;;;5.13;3.70;;;23.50;81.50;;;;;;5062597;28;20629;-88
2022/08/19 18:18:06;;;;;;;6.63;3.33;;;23.40;85.60;;;;;;5042902;28;20596;-88
2022/08/19 18:20:32;;;;;;;6.07;3.00;;;23.20;88.70;;;;;;5057581;28;20567;-88
2022/08/19 18:22:59;;;;;;;5.87;3.20;;;23.10;91.10;;;;;;5057618;28;20197;-88
2022/08/19 18:25:26;;;;;;;5.50;3.60;;;23.10;91.30;;;;;;5057664;28;20185;-89
2022/08/19 18:27:59;;;;;;;6.27;3.07;;;23.10;91.80;;;;;;5040721;28;20181;-88
2022/08/19 18:30:32;;;;;;;4.30;3.20;;;23.30;90.30;;;;;;5058766;28;20180;-88
2022/08/19 18:32:58;;;;;;;6.27;3.33;;;23.10;91.30;;;;;;5040280;28;20228;-88
2022/08/19 18:35:47;;;;;;;6.87;3.30;;;23.00;93.30;;;;;;5056862;28;20193;-88
2022/08/19 18:49:27;;;;;;;5.93;3.97;;;22.70;98.10;;;;;;5058616;28;20222;-90
2022/08/19 18:51:55;;;;;;;6.40;4.23;;;22.80;96.10;;;;;;5042009;28;20212;-90
2022/08/19 18:54:21;;;;;;;6.77;4.30;;;22.90;95.70;;;;;;5044209;28;20189;-89
2022/08/19 18:56:47;;;;;;;8.07;4.87;;;22.80;96.90;;;;;;5045467;28;20861;-88
2022/08/19 18:59:14;;;;;;;5.00;4.20;;;22.80;96.90;;;;;;5066749;28;20196;-87
2022/08/19 19:01:49;;;;;;;7.20;5.50;;;22.70;98.80;;;;;;5071138;28;20212;-88
2022/08/19 19:04:20;;;;;;;7.67;5.23;;;22.60;99.90;;;;;;5073766;28;20187;-89
2022/08/19 19:06:47;;;;;;;4.83;4.23;;;22.50;99.90;;;;;;5054701;28;20208;-87
2022/08/19 19:09:22;;;;;;;6.07;4.63;;;22.50;99.90;;;;;;5048517;28;20321;-88
2022/08/19 19:12:17;;;;;;;7.00;4.67;;;22.50;99.90;;;;;;5048907;28;20587;-88
2022/08/19 19:14:45;;;;;;;6.30;4.90;;;22.40;99.90;;;;;;5051391;28;20176;-86
2022/08/19 19:17:14;;;;;;;7.57;5.07;;;22.40;99.90;;;;;;5068048;28;20187;-89
2022/08/19 19:19:42;;;;;;;5.50;4.00;;;22.50;99.90;;;;;;5054973;28;20180;-88
2022/08/19 19:22:16;;;;;;;5.23;4.20;;;22.40;99.90;;;;;;5059422;28;20220;-89
2022/08/19 19:24:46;;;;;;;3.63;3.20;;;22.50;99.90;;;;;;5078572;28;20188;-91
2022/08/19 19:27:17;;;;;;;6.43;4.10;;;22.50;98.30;;;;;;5059838;28;20184;-88
2022/08/19 19:29:44;;;;;;;6.60;4.03;;;22.50;98.80;;;;;;5060598;28;20172;-88
2022/08/19 19:32:20;;;;;;;5.93;4.23;;;22.30;99.40;;;;;;5078318;28;20230;-85
2022/08/19 19:34:47;;;;;;;4.63;3.53;;;22.40;99.20;;;;;;5059540;28;20191;-87
2022/08/19 19:37:15;;;;;;;4.73;3.03;;;22.40;98.80;;;;;;5078779;28;20188;-87
2022/08/19 19:39:41;;;;;;;6.57;3.80;;;22.30;98.70;;;;;;5062653;28;20211;-89
2022/08/19 19:42:12;;;;;;;3.53;2.80;;;22.20;98.20;;;;;;5061565;28;20187;-90
2022/08/19 19:44:41;;;;;;;6.87;3.23;;;22.40;96.70;;;;;;5074295;28;20172;-88
2022/08/19 19:47:09;;;;;;;4.53;2.80;;;22.30;97.50;;;;;;5061608;28;20234;-91
2022/08/19 19:49:39;;;;;;;3.83;2.60;;;22.20;97.30;;;;;;5073893;28;20180;-89
2022/08/19 19:52:07;;;;;;;4.77;2.60;;;22.20;97.20;;;;;;5076547;28;20227;-90
2022/08/19 19:54:36;;;;;;;6.20;2.27;;;22.10;98.00;;;;;;5077133;28;20169;-88
2022/08/19 19:57:04;;;;;;;3.87;2.03;;;22.10;95.60;;;;;;5079704;28;20170;-90
2022/08/19 19:59:33;;;;;;;4.73;1.90;;;22.20;92.40;;;;;;5079555;28;20197;-89
2022/08/19 20:02:05;;;;;;;4.00;2.13;;;22.20;90.10;;;;;;5073827;28;20196;-89
2022/08/19 20:04:35;;;;;;;4.37;2.40;;;22.20;89.60;;;;;;5064478;28;20199;-95
2022/08/19 20:07:02;;;;;;;4.67;2.23;;;22.20;90.00;;;;;;5067122;28;20168;-96
2022/08/19 20:09:38;;;;;;;5.93;2.27;;;22.10;90.00;;;;;;5070894;28;20183;-94
2022/08/19 20:12:18;;;;;;;3.17;1.67;;;21.80;91.30;;;;;;5068434;28;20259;-91
2022/08/19 20:14:47;;;;;;;4.17;2.20;;;21.70;95.30;;;;;;5067031;28;20214;-95
2022/08/19 20:17:16;;;;;;;5.57;2.17;;;21.60;96.60;;;;;;5075257;28;20185;-92
2022/08/19 20:19:43;;;;;;;3.77;2.57;;;21.60;96.50;;;;;;5079604;28;20181;-95
2022/08/19 20:22:12;;;;;;;5.40;2.60;;;21.60;98.10;;;;;;5066151;28;20258;-95
2022/08/19 20:24:41;;;;;;;4.80;3.07;;;21.50;99.40;;;;;;5062305;28;20175;-95
2022/08/19 20:27:10;;;;;;;4.93;3.13;;;21.50;99.80;;;;;;5057661;28;20194;-88
2022/08/19 20:29:37;;;;;;;5.97;2.63;;;21.50;99.90;;;;;;5056670;28;20179;-88
2022/08/19 20:32:04;;;;;;;3.60;2.67;;;21.50;99.90;;;;;;5041226;28;20213;-87
2022/08/19 20:34:29;;;;;;;4.13;2.50;;;21.40;99.90;;;;;;5057724;28;20274;-89
2022/08/19 20:36:56;;;;;;;5.47;2.80;;;21.40;99.90;;;;;;5041434;28;20595;-88
2022/08/19 20:39:26;;;;;;;3.50;2.23;;;21.50;99.90;;;;;;5059422;28;20176;-87
2022/08/19 20:41:55;;;;;;;3.93;2.13;;;21.50;99.90;;;;;;5057693;28;20249;-88
2022/08/19 20:44:20;;;;;;;4.73;2.33;;;21.50;99.90;;;;;;5057389;28;20210;-87
2022/08/19 20:46:47;;;;;;;6.40;2.57;;;21.50;99.90;;;;;;5057598;28;20187;-90
2022/08/19 20:49:12;;;;;;;3.80;2.30;;;21.60;99.90;;;;;;5056796;28;20191;-87
2022/08/19 20:51:40;;;;;;;4.60;2.70;;;21.50;99.90;;;;;;5040474;28;20208;-88
2022/08/19 20:54:06;;;;;;;4.03;2.40;;;21.50;99.90;;;;;;5063345;28;20171;-87
2022/08/19 20:56:31;;;;;;;4.40;2.50;;;21.50;99.90;;;;;;5077561;28;20172;-89
2022/08/19 20:58:57;;;;;;;3.63;2.57;;;21.50;99.90;;;;;;5073804;28;20196;-87
2022/08/19 21:01:24;;;;;;;3.70;2.63;;;21.50;99.90;;;;;;5077363;28;20169;-86
2022/08/19 21:03:55;;;;;;;4.53;2.50;;;21.60;99.90;;;;;;5074099;28;20198;-86
2022/08/19 21:06:26;;;;;;;5.63;2.83;;;21.50;99.90;;;;;;5071931;28;20186;-89
2022/08/19 21:08:54;;;;;;;5.93;3.00;;;21.40;99.90;;;;;;5053767;28;20188;-91
2022/08/19 21:11:21;;;;;;;6.53;2.90;;;21.30;99.90;;;;;;5065435;28;20190;-88
2022/08/19 21:13:47;;;;;;;6.83;4.70;;;21.40;99.90;;;;;;5061930;28;20187;-94
2022/08/19 21:16:16;;;;;;;4.77;3.00;;;21.40;99.90;;;;;;5059454;28;20215;-95
2022/08/19 21:18:44;;;;;;;5.83;3.30;;;21.40;99.90;;;;;;5058120;28;20234;-94
2022/08/19 21:21:11;;;;;;;5.57;3.23;;;21.50;99.90;;;;;;5056744;28;20180;-90
2022/08/19 21:23:37;;;;;;;5.87;3.43;;;21.50;99.90;;;;;;5057817;28;20253;-93
2022/08/19 21:26:03;;;;;;;5.33;3.30;;;21.50;99.90;;;;;;5059144;28;20195;-91
2022/08/19 21:28:28;;;;;;;5.90;3.77;;;21.40;99.90;;;;;;5042950;28;20191;-91
2022/08/19 21:30:56;;;;;;;12.87;3.93;;;21.40;99.90;;;;;;5066864;28;20190;-91
2022/08/19 21:33:22;;;;;;;4.83;3.30;;;21.40;99.90;;;;;;5043726;28;20255;-89
2022/08/19 21:35:48;;;;;;;5.83;3.40;;;21.20;99.90;;;;;;5044969;28;20189;-91
2022/08/19 21:38:23;;;;;;;6.87;3.40;;;21.20;99.90;;;;;;5056828;28;20300;-87
2022/08/19 21:40:49;;;;;;;5.17;3.67;;;21.30;99.90;;;;;;5061129;28;20638;-87
2022/08/19 21:43:17;;;;;;;5.87;3.20;;;21.20;99.90;;;;;;5059973;28;20256;-88
2022/08/19 21:45:44;;;;;;;6.23;3.60;;;21.20;99.90;;;;;;5061060;28;20634;-89
2022/08/19 21:48:13;;;;;;;5.90;3.70;;;21.40;99.90;;;;;;5041953;28;20183;-89
2022/08/19 21:50:42;;;;;;;6.83;3.77;;;21.30;99.90;;;;;;5046687;28;20186;-87
2022/08/19 21:53:08;;;;;;;6.53;3.60;;;21.30;99.90;;;;;;5055817;28;20222;-88
2022/08/19 21:55:38;;;;;;;5.97;3.50;;;21.30;99.90;;;;;;5042959;28;20192;-91
2022/08/19 21:58:04;;;;;;;4.80;3.70;;;21.30;99.90;;;;;;5037984;28;20238;-91
2022/08/19 22:00:32;;;;;;;4.33;3.60;;;21.20;99.90;;;;;;5036241;28;20183;-85
2022/08/19 22:03:00;;;;;;;5.37;3.87;;;21.20;99.90;;;;;;5052066;28;20175;-87
2022/08/19 22:05:27;;;;;;;6.37;3.70;;;21.30;99.90;;;;;;5048521;28;20195;-91
2022/08/19 22:07:58;;;;;;;5.03;3.93;;;21.20;99.90;;;;;;5055560;28;20168;-90
2022/08/19 22:10:29;;;;;;;6.10;4.23;;;21.10;99.90;;;;;;5056787;28;20239;-88
2022/08/19 22:13:04;;;;;;;7.20;4.30;;;21.10;99.90;;;;;;5054379;28;20217;-89
2022/08/19 22:15:32;;;;;;;4.87;4.07;;;21.10;99.90;;;;;;5044017;28;20180;-89
2022/08/19 22:18:00;;;;;;;6.90;4.20;;;21.00;99.90;;;;;;5046522;28;20190;-89
2022/08/19 22:20:28;;;;;;;6.60;3.97;;;20.90;99.90;;;;;;5048043;28;20208;-87
2022/08/19 22:23:00;;;;;;;7.87;4.57;;;20.80;99.90;;;;;;5041416;28;20205;-87
2022/08/19 22:28:53;;;;;;;7.67;4.57;;;20.80;99.90;;;;;;5035509;28;20161;-88
2022/08/19 22:31:19;;;;;;;8.77;5.20;;;20.70;99.90;;;;;;5035056;28;20185;-86
2022/08/19 22:33:46;;;;;;;6.93;5.23;;;20.60;99.90;;;;;;5035085;28;20182;-88
2022/08/19 22:36:13;;;;;;;7.73;5.10;;;20.50;99.90;;;;;;5054246;28;20181;-86
2022/08/19 22:38:38;;;;;;;7.83;5.20;;;20.30;99.90;;;;;;5055633;28;20188;-88
2022/08/19 22:41:04;;;;;;;7.23;5.70;;;20.10;99.90;;;;;;5023557;28;20241;-87
2022/08/19 22:43:35;;;;;;;6.40;5.13;;;20.20;99.90;;;;;;5038043;28;20709;-87
2022/08/19 22:46:05;;;;;;;8.53;5.33;;;20.00;99.90;;;;;;5038458;28;20221;-86
2022/08/19 22:48:31;;;;;;;8.47;5.60;;;20.00;99.90;;;;;;5037124;28;20205;-87
2022/08/19 22:53:44;;;;;;;7.47;5.70;;;19.90;99.00;;;;;;5039944;28;20199;-88
2022/08/19 22:56:10;;;;;;;6.93;5.83;;;19.90;99.40;;;;;;5060741;28;20177;-88
2022/08/19 22:58:38;;;;;;;8.00;5.50;;;19.70;99.10;;;;;;5055397;28;20198;-87
2022/08/19 23:01:05;;;;;;;7.77;6.03;;;19.80;99.30;;;;;;5047511;28;20291;-91
2022/08/19 23:03:34;;;;;;;6.73;5.50;;;19.70;99.20;;;;;;5039661;28;20178;-91
2022/08/19 23:06:00;;;;;;;12.17;6.07;;;19.70;99.60;;;;;;5040066;28;20780;-91
2022/08/19 23:08:25;;;;;;;7.53;5.40;;;19.80;99.40;;;;;;5039884;28;20219;-90
2022/08/19 23:10:51;;;;;;;7.97;5.53;;;19.80;98.90;;;;;;5038347;28;20184;-88
2022/08/19 23:13:17;;;;;;;7.67;5.83;;;19.80;99.60;;;;;;5020708;28;20224;-93
2022/08/19 23:15:45;;;;;;;8.00;5.17;;;19.70;99.70;;;;;;5037485;28;20657;-89
2022/08/19 23:18:11;;;;;;;6.70;5.63;;;19.80;99.90;;;;;;5037361;28;20208;-91
2022/08/19 23:20:39;;;;;;;8.43;5.93;;;19.80;99.90;;;;;;5037450;28;20673;-92
2022/08/19 23:23:09;;;;;;;9.70;6.40;;;19.80;98.90;;;;;;5037326;28;20610;-86
2022/08/19 23:25:36;;;;;;;8.43;5.80;;;19.80;99.50;;;;;;5037060;28;20188;-87
2022/08/19 23:30:49;;;;;;;7.73;5.97;;;19.80;99.90;;;;;;5038202;28;20235;-89
2022/08/19 23:33:23;;;;;;;7.63;5.90;;;19.90;99.80;;;;;;5036726;28;20286;-86
2022/08/19 23:35:50;;;;;;;9.10;5.63;;;19.70;99.90;;;;;;5036520;28;20214;-86
2022/08/19 23:38:17;;;;;;;6.63;5.57;;;19.70;99.90;;;;;;5035849;28;20223;-90
2022/08/19 23:40:44;;;;;;;8.50;5.97;;;19.70;99.90;;;;;;5037031;28;20198;-88
2022/08/19 23:43:10;;;;;;;9.40;5.43;;;19.70;99.90;;;;;;5036331;28;20540;-88
2022/08/19 23:45:38;;;;;;;8.37;5.43;;;19.70;99.90;;;;;;5036076;28;20185;-87
2022/08/19 23:48:04;;;;;;;8.10;5.40;;;19.80;99.90;;;;;;5034525;28;20193;-88
2022/08/19 23:50:31;;;;;;;7.13;5.30;;;19.80;99.90;;;;;;5035680;28;20268;-88
2022/08/19 23:53:00;;;;;;;6.23;5.07;;;19.80;99.90;;;;;;5019042;28;20217;-87
2022/08/19 23:55:29;;;;;;;7.63;4.73;;;19.80;97.30;;;;;;5035878;28;20191;-85
2022/08/19 23:57:55;;;;;;;8.10;5.40;;;19.90;93.10;;;;;;5035326;28;20737;-86
